Time;durP1;ratioP1;P1;durP2;ratioP2;P2;SDS_P1;SDS_P2;PMS_P1;PMS_P2;Temp;Humidity;BMP_temperature;BMP_pressure;BME280_temperature;BME280_humidity;BME280_pressure;Samples;Min_cycle;Max_cycle;Signal;HPM_P1;HPM_P2
2021/08/24 00:00:32;;;;;;;15.68;13.90;;;14.50;99.90;;;;;;5052091;28;20053;-75
2021/08/24 00:02:59;;;;;;;18.48;16.38;;;14.40;99.90;;;;;;5052203;28;20036;-74
2021/08/24 00:05:32;;;;;;;20.45;16.25;;;14.30;99.90;;;;;;5052295;28;20060;-75
2021/08/24 00:07:58;;;;;;;20.92;15.32;;;14.20;99.90;;;;;;5052197;28;20040;-74
2021/08/24 00:10:29;;;;;;;20.55;15.65;;;14.10;99.90;;;;;;5067394;28;20025;-75
2021/08/24 00:12:56;;;;;;;24.45;16.23;;;14.10;99.90;;;;;;5052587;28;20029;-73
2021/08/24 00:15:24;;;;;;;21.05;16.13;;;14.00;99.90;;;;;;5032406;28;20037;-76
2021/08/24 00:17:50;;;;;;;21.55;16.63;;;13.90;99.90;;;;;;5052970;28;20040;-76
2021/08/24 00:20:18;;;;;;;23.45;17.90;;;13.90;99.90;;;;;;5069393;28;20178;-75
2021/08/24 00:22:44;;;;;;;25.08;18.45;;;13.80;99.90;;;;;;5054816;28;20044;-76
2021/08/24 00:25:12;;;;;;;24.98;18.58;;;13.80;99.90;;;;;;5060051;28;20047;-75
2021/08/24 00:27:39;;;;;;;24.80;18.92;;;13.80;99.90;;;;;;5062773;28;20362;-75
2021/08/24 00:30:07;;;;;;;25.50;18.45;;;13.80;99.90;;;;;;5058331;28;20047;-75
2021/08/24 00:32:34;;;;;;;22.65;16.85;;;13.80;99.90;;;;;;5052426;28;20478;-75
2021/08/24 00:35:00;;;;;;;22.60;16.50;;;13.70;99.90;;;;;;5051478;28;20045;-75
2021/08/24 00:37:27;;;;;;;24.50;17.27;;;13.60;99.90;;;;;;5053114;28;20033;-75
2021/08/24 00:39:53;;;;;;;21.27;16.83;;;13.60;99.90;;;;;;5063114;28;20443;-75
2021/08/24 00:42:20;;;;;;;20.45;15.98;;;13.60;99.90;;;;;;5052310;28;20032;-75
2021/08/24 00:44:48;;;;;;;24.55;16.13;;;13.50;99.90;;;;;;5052965;28;20032;-76
2021/08/24 00:47:20;;;;;;;23.40;16.58;;;13.60;99.90;;;;;;5052592;28;20029;-76
2021/08/24 00:49:47;;;;;;;21.20;16.60;;;13.60;99.90;;;;;;5052944;28;20451;-75
2021/08/24 00:52:17;;;;;;;18.35;16.25;;;13.60;99.90;;;;;;5051972;28;20040;-75
2021/08/24 00:54:45;;;;;;;22.73;16.75;;;13.60;99.90;;;;;;5070672;28;20041;-75
2021/08/24 00:57:18;;;;;;;20.98;15.77;;;13.60;99.90;;;;;;5065801;28;20040;-75
2021/08/24 00:59:45;;;;;;;20.70;15.93;;;13.60;99.90;;;;;;5052744;28;20037;-75
2021/08/24 01:02:12;;;;;;;19.30;14.77;;;13.50;99.90;;;;;;5063771;28;20037;-75
2021/08/24 01:04:39;;;;;;;20.38;16.23;;;13.40;99.90;;;;;;5067052;28;20048;-75
2021/08/24 01:07:21;;;;;;;19.60;15.05;;;13.40;99.90;;;;;;5054745;28;20025;-75
2021/08/24 01:09:58;;;;;;;19.85;14.98;;;13.30;99.90;;;;;;5059007;28;20033;-75
2021/08/24 01:12:51;;;;;;;20.92;15.10;;;13.30;99.90;;;;;;5053479;28;20037;-75
2021/08/24 01:15:33;;;;;;;19.05;14.90;;;13.20;99.90;;;;;;5058318;28;20033;-76
2021/08/24 01:18:09;;;;;;;21.63;15.15;;;13.10;99.90;;;;;;5063697;28;20033;-76
2021/08/24 01:21:06;;;;;;;22.80;16.23;;;13.00;99.90;;;;;;5059865;28;20036;-75
2021/08/24 01:23:46;;;;;;;17.77;13.40;;;13.00;99.90;;;;;;5052540;28;20076;-74
2021/08/24 01:26:24;;;;;;;19.95;14.60;;;13.00;99.90;;;;;;5051652;28;20045;-75
2021/08/24 01:29:18;;;;;;;22.50;16.73;;;13.00;99.90;;;;;;5051000;28;20033;-74
2021/08/24 01:32:08;;;;;;;20.05;15.35;;;13.00;99.90;;;;;;5052318;28;20493;-74
2021/08/24 01:35:12;;;;;;;19.25;15.30;;;13.00;99.90;;;;;;5065698;28;20049;-75
2021/08/24 01:37:44;;;;;;;22.98;15.93;;;12.80;99.90;;;;;;5052152;28;20025;-74
2021/08/24 01:40:21;;;;;;;21.75;17.25;;;12.70;99.90;;;;;;5051995;28;20032;-74
2021/08/24 01:42:48;;;;;;;26.92;17.95;;;12.70;99.90;;;;;;5054936;28;20394;-74
2021/08/24 01:45:19;;;;;;;25.08;18.75;;;12.70;99.90;;;;;;5066929;28;20052;-73
2021/08/24 01:47:52;;;;;;;18.67;14.52;;;12.70;99.90;;;;;;5055932;28;20390;-74
2021/08/24 01:50:26;;;;;;;24.20;17.90;;;12.70;99.90;;;;;;5069182;28;20103;-74
2021/08/24 01:53:16;;;;;;;26.55;18.23;;;12.70;99.90;;;;;;5058349;28;20036;-76
2021/08/24 01:55:48;;;;;;;27.27;17.40;;;12.70;99.90;;;;;;5066878;28;20040;-74
2021/08/24 01:58:23;;;;;;;27.20;18.27;;;12.70;99.90;;;;;;5063772;28;20049;-75
2021/08/24 02:00:54;;;;;;;26.08;18.92;;;12.70;99.90;;;;;;5096635;28;20037;-75
2021/08/24 02:03:31;;;;;;;27.13;17.52;;;12.60;99.90;;;;;;5060530;28;20044;-74
2021/08/24 02:06:10;;;;;;;22.45;18.10;;;12.60;99.90;;;;;;5056997;28;20462;-74
2021/08/24 02:08:41;;;;;;;25.17;18.02;;;12.60;99.90;;;;;;5054871;28;20047;-75
2021/08/24 02:11:07;;;;;;;26.08;18.52;;;12.60;99.90;;;;;;5055526;28;20036;-74
2021/08/24 02:13:41;;;;;;;27.35;18.35;;;12.50;99.90;;;;;;5055917;28;20037;-75
2021/08/24 02:16:12;;;;;;;23.20;17.92;;;12.50;99.90;;;;;;5053594;28;20041;-75
2021/08/24 02:18:41;;;;;;;30.33;19.88;;;12.50;99.90;;;;;;5054962;28;20037;-75
2021/08/24 02:21:23;;;;;;;33.13;20.23;;;12.50;99.90;;;;;;5054537;28;20033;-73
2021/08/24 02:23:53;;;;;;;28.83;19.38;;;12.50;99.90;;;;;;5069449;28;20045;-75
2021/08/24 02:26:23;;;;;;;27.75;19.35;;;12.50;99.90;;;;;;5054344;28;20033;-75
2021/08/24 02:28:53;;;;;;;26.80;19.17;;;12.50;99.90;;;;;;5055162;28;20037;-74
2021/08/24 02:31:26;;;;;;;21.92;17.58;;;12.40;99.90;;;;;;5061156;28;20289;-75
2021/08/24 02:34:13;;;;;;;23.45;16.83;;;12.40;99.90;;;;;;5060652;28;20063;-75
2021/08/24 02:36:49;;;;;;;22.83;17.90;;;12.30;99.90;;;;;;5069766;28;20139;-75
2021/08/24 02:39:24;;;;;;;30.42;19.42;;;12.30;99.90;;;;;;5057029;28;20068;-74
2021/08/24 02:41:54;;;;;;;23.95;18.60;;;12.30;99.90;;;;;;5054917;28;20036;-75
2021/08/24 02:44:30;;;;;;;27.77;18.87;;;12.30;99.90;;;;;;5054451;28;20040;-74
2021/08/24 02:46:58;;;;;;;24.63;17.92;;;12.30;99.90;;;;;;5068956;28;20629;-74
2021/08/24 02:49:28;;;;;;;26.60;17.80;;;12.20;99.90;;;;;;5054989;28;20037;-74
2021/08/24 02:51:58;;;;;;;28.58;19.08;;;12.20;99.90;;;;;;5054870;28;20048;-75
2021/08/24 02:54:32;;;;;;;23.17;18.70;;;12.10;99.90;;;;;;5053365;28;20056;-75
2021/08/24 02:57:00;;;;;;;23.38;17.92;;;12.10;99.90;;;;;;5054344;28;20040;-73
2021/08/24 02:59:28;;;;;;;24.95;17.35;;;12.10;99.90;;;;;;5053831;28;20478;-74
2021/08/24 03:01:54;;;;;;;25.25;17.88;;;12.00;99.90;;;;;;5061246;28;20045;-74
2021/08/24 03:04:21;;;;;;;20.65;16.50;;;12.00;99.90;;;;;;5053218;28;20056;-75
2021/08/24 03:06:53;;;;;;;22.45;17.45;;;11.90;99.90;;;;;;5055416;28;20382;-75
2021/08/24 03:09:22;;;;;;;21.95;17.25;;;12.00;99.90;;;;;;5054197;28;20271;-75
2021/08/24 03:12:03;;;;;;;24.05;19.35;;;12.00;99.90;;;;;;5054626;28;20096;-76
2021/08/24 03:14:35;;;;;;;;;;;11.90;99.90;;;;;;5066600;28;20036;-74
2021/08/24 03:17:09;;;;;;;22.02;16.85;;;12.00;99.90;;;;;;5058157;28;19909;-74
2021/08/24 03:19:38;;;;;;;22.05;16.67;;;11.90;99.90;;;;;;5054095;28;20029;-74
2021/08/24 03:22:06;;;;;;;21.38;15.32;;;11.80;99.90;;;;;;5053727;28;20481;-74
2021/08/24 03:24:34;;;;;;;22.67;16.42;;;11.70;99.90;;;;;;5053501;28;20041;-74
2021/08/24 03:27:01;;;;;;;21.65;15.23;;;11.60;99.90;;;;;;5056285;28;20024;-74
2021/08/24 03:29:27;;;;;;;20.83;15.75;;;11.50;99.90;;;;;;5071943;28;20040;-75
2021/08/24 03:31:56;;;;;;;25.38;18.73;;;11.50;99.90;;;;;;5067602;28;20048;-75
2021/08/24 03:34:24;;;;;;;27.13;19.05;;;11.60;99.90;;;;;;5053289;28;20041;-75
2021/08/24 03:36:50;;;;;;;28.67;18.75;;;11.70;99.90;;;;;;5053824;28;20048;-75
2021/08/24 03:39:17;;;;;;;26.42;18.13;;;11.60;99.90;;;;;;5068122;28;20504;-75
2021/08/24 03:41:44;;;;;;;23.05;17.88;;;11.60;99.90;;;;;;5057662;28;20064;-75
2021/08/24 03:44:10;;;;;;;26.55;18.13;;;11.50;99.90;;;;;;5053008;28;20490;-75
2021/08/24 03:46:36;;;;;;;26.40;18.15;;;11.50;99.90;;;;;;5053277;28;20033;-75
2021/08/24 03:49:03;;;;;;;22.67;17.58;;;11.40;99.90;;;;;;5052999;28;20040;-75
2021/08/24 03:51:29;;;;;;;23.77;16.83;;;11.40;99.90;;;;;;5061185;28;20450;-76
2021/08/24 03:53:55;;;;;;;22.73;18.10;;;11.40;99.90;;;;;;5060142;28;20387;-75
2021/08/24 03:56:21;;;;;;;25.95;18.05;;;11.40;99.90;;;;;;5052724;28;20057;-75
2021/08/24 03:58:48;;;;;;;24.67;18.45;;;11.40;99.90;;;;;;5053208;28;20040;-74
2021/08/24 04:01:17;;;;;;;26.98;18.00;;;11.30;99.90;;;;;;5063614;28;20028;-74
2021/08/24 04:03:43;;;;;;;23.23;16.98;;;11.30;99.90;;;;;;5056639;28;20047;-75
2021/08/24 04:06:10;;;;;;;25.52;17.92;;;11.20;99.90;;;;;;5052569;28;20029;-75
2021/08/24 04:08:37;;;;;;;21.05;16.65;;;11.20;99.90;;;;;;5061223;28;20375;-73
2021/08/24 04:11:05;;;;;;;24.50;16.38;;;11.20;99.90;;;;;;5052894;28;20033;-73
2021/08/24 04:13:32;;;;;;;21.05;16.63;;;11.20;99.90;;;;;;5053010;28;20037;-73
2021/08/24 04:16:02;;;;;;;24.75;15.38;;;11.20;99.90;;;;;;5052668;28;20029;-74
2021/08/24 04:18:29;;;;;;;20.15;15.38;;;11.20;99.90;;;;;;5053169;28;20029;-74
2021/08/24 04:20:55;;;;;;;20.90;15.32;;;11.20;99.90;;;;;;5052338;28;20052;-74
2021/08/24 04:23:23;;;;;;;19.73;14.60;;;11.20;99.90;;;;;;5052045;28;20466;-75
2021/08/24 04:25:50;;;;;;;21.92;15.65;;;11.10;99.90;;;;;;5069595;28;20028;-74
2021/08/24 04:28:16;;;;;;;21.27;13.98;;;11.20;99.90;;;;;;5067043;28;20036;-74
2021/08/24 04:30:43;;;;;;;21.52;15.10;;;11.10;99.90;;;;;;5052879;28;20029;-74
2021/08/24 04:33:09;;;;;;;22.35;13.85;;;11.20;99.90;;;;;;5052373;28;20044;-74
2021/08/24 04:35:35;;;;;;;18.05;13.27;;;11.10;99.90;;;;;;5052924;28;20056;-74
2021/08/24 04:38:01;;;;;;;18.98;13.57;;;11.00;99.90;;;;;;5052711;28;20048;-73
2021/08/24 04:40:30;;;;;;;20.33;13.27;;;11.00;99.90;;;;;;5052527;28;20045;-75
2021/08/24 04:42:56;;;;;;;21.25;13.32;;;10.90;99.90;;;;;;5053285;28;20036;-75
2021/08/24 04:45:23;;;;;;;18.40;12.90;;;11.00;99.90;;;;;;5051952;28;20036;-74
2021/08/24 04:47:49;;;;;;;16.38;12.25;;;11.00;99.90;;;;;;5052233;28;20474;-74
2021/08/24 04:50:16;;;;;;;16.25;12.18;;;11.00;99.90;;;;;;5066541;28;20041;-74
2021/08/24 04:52:43;;;;;;;14.43;11.13;;;11.00;99.90;;;;;;5051676;28;20545;-74
2021/08/24 04:55:10;;;;;;;14.88;11.15;;;11.00;99.90;;;;;;5052445;28;20037;-74
2021/08/24 04:57:36;;;;;;;13.95;9.75;;;11.00;99.90;;;;;;5065306;28;20458;-74
2021/08/24 05:00:04;;;;;;;13.75;10.68;;;10.90;99.90;;;;;;5055017;28;20391;-74
2021/08/24 05:02:30;;;;;;;12.77;10.45;;;11.00;99.90;;;;;;5070994;28;20032;-74
2021/08/24 05:04:56;;;;;;;13.93;10.10;;;11.00;99.90;;;;;;5052445;28;20049;-75
2021/08/24 05:07:23;;;;;;;13.45;10.60;;;11.00;99.90;;;;;;5064138;28;20248;-75
2021/08/24 05:09:49;;;;;;;13.95;9.18;;;11.00;99.90;;;;;;5052653;28;20032;-74
2021/08/24 05:12:15;;;;;;;9.75;8.50;;;11.10;99.90;;;;;;5052542;28;20029;-74
2021/08/24 05:14:41;;;;;;;9.93;8.13;;;11.50;99.90;;;;;;5052787;28;20040;-74
2021/08/24 05:17:07;;;;;;;8.85;6.53;;;12.00;99.90;;;;;;5051789;28;20033;-74
2021/08/24 05:19:34;;;;;;;6.55;5.70;;;12.30;99.90;;;;;;5053141;28;20037;-73
2021/08/24 05:22:00;;;;;;;5.60;4.60;;;12.90;99.90;;;;;;5066290;28;20029;-74
2021/08/24 05:24:26;;;;;;;5.60;4.07;;;13.10;99.90;;;;;;5063415;28;20041;-74
2021/08/24 05:26:52;;;;;;;7.28;3.55;;;13.50;99.90;;;;;;5055959;28;20056;-74
2021/08/24 05:29:18;;;;;;;6.90;3.50;;;13.70;99.90;;;;;;5055736;28;20032;-74
2021/08/24 05:31:45;;;;;;;4.90;3.28;;;14.30;99.90;;;;;;5055945;28;20169;-75
2021/08/24 05:34:12;;;;;;;4.65;2.92;;;14.80;99.90;;;;;;5055322;28;20060;-75
2021/08/24 05:36:38;;;;;;;5.35;3.10;;;15.40;99.90;;;;;;5055495;28;20036;-74
2021/08/24 05:39:05;;;;;;;6.32;2.85;;;16.00;99.90;;;;;;5054931;28;20033;-73
2021/08/24 05:41:31;;;;;;;4.05;2.55;;;16.20;99.90;;;;;;5072314;28;20036;-74
2021/08/24 05:43:57;;;;;;;4.15;2.50;;;16.40;99.40;;;;;;5055549;28;20442;-74
2021/08/24 05:46:23;;;;;;;4.57;2.67;;;16.30;99.10;;;;;;5055471;28;20037;-74
2021/08/24 05:48:52;;;;;;;6.43;3.03;;;16.00;99.00;;;;;;5071272;28;20508;-74
2021/08/24 05:51:21;;;;;;;5.15;2.50;;;15.90;99.90;;;;;;5064853;28;20040;-74
2021/08/24 05:53:47;;;;;;;3.33;2.63;;;15.70;99.90;;;;;;5070487;28;20037;-74
2021/08/24 05:56:17;;;;;;;7.00;2.83;;;15.90;99.60;;;;;;5054672;28;20466;-74
2021/08/24 05:58:43;;;;;;;4.32;2.35;;;15.70;99.90;;;;;;5065342;28;20044;-73
2021/08/24 06:01:34;;;;;;;9.85;3.22;;;15.50;99.90;;;;;;5067706;28;20413;-73
2021/08/24 06:04:01;;;;;;;5.43;2.70;;;15.40;99.90;;;;;;5054825;28;20398;-74
2021/08/24 06:06:30;;;;;;;5.30;2.50;;;15.60;99.90;;;;;;5068180;28;20481;-74
2021/08/24 06:08:57;;;;;;;4.22;2.15;;;15.50;99.80;;;;;;5058749;28;20033;-74
2021/08/24 06:11:33;;;;;;;5.70;2.50;;;15.40;99.90;;;;;;5066403;28;20497;-73
2021/08/24 06:14:02;;;;;;;3.45;2.20;;;15.40;99.90;;;;;;5059095;28;20041;-73
2021/08/24 06:16:29;;;;;;;5.05;2.38;;;15.50;99.90;;;;;;5055539;28;20037;-74
2021/08/24 06:18:56;;;;;;;3.65;1.40;;;15.70;99.20;;;;;;5055044;28;20051;-74
2021/08/24 06:21:22;;;;;;;4.82;2.10;;;15.70;98.80;;;;;;5055270;28;20489;-74
2021/08/24 06:23:50;;;;;;;5.28;2.35;;;15.90;99.00;;;;;;5063486;28;20041;-73
2021/08/24 06:26:17;;;;;;;5.60;2.40;;;16.80;97.30;;;;;;5057114;28;20036;-74
2021/08/24 06:28:43;;;;;;;2.72;1.80;;;17.00;96.00;;;;;;5058382;28;20028;-74
2021/08/24 06:31:14;;;;;;;6.00;1.90;;;17.00;95.20;;;;;;5073850;28;20032;-74
2021/08/24 06:33:41;;;;;;;4.88;2.08;;;16.80;96.40;;;;;;5078220;28;20055;-75
2021/08/24 06:36:08;;;;;;;4.20;1.48;;;16.80;95.10;;;;;;5074010;28;20063;-73
2021/08/24 06:38:34;;;;;;;4.47;1.88;;;17.00;95.40;;;;;;5068995;28;20032;-75
2021/08/24 06:41:02;;;;;;;3.60;1.92;;;17.00;95.00;;;;;;5072977;28;20032;-77
2021/08/24 06:43:30;;;;;;;4.47;1.55;;;17.40;94.80;;;;;;5071032;28;20474;-79
2021/08/24 06:45:57;;;;;;;4.28;1.85;;;17.90;93.30;;;;;;5070032;28;20051;-78
2021/08/24 06:48:23;;;;;;;3.95;2.13;;;17.20;93.70;;;;;;5072419;28;20037;-77
2021/08/24 06:50:50;;;;;;;3.63;1.92;;;16.90;94.30;;;;;;5072393;28;20024;-77
2021/08/24 06:53:16;;;;;;;4.18;1.80;;;17.20;93.20;;;;;;5070730;28;20072;-78
2021/08/24 06:55:43;;;;;;;4.65;1.73;;;16.80;93.70;;;;;;5071242;28;20040;-78
2021/08/24 06:58:10;;;;;;;3.40;1.50;;;16.60;93.90;;;;;;5062899;28;20423;-78
2021/08/24 07:00:37;;;;;;;3.67;1.77;;;16.60;95.30;;;;;;5071443;28;20037;-77
2021/08/24 07:03:09;;;;;;;3.92;2.00;;;16.40;94.40;;;;;;5066353;28;20029;-77
2021/08/24 07:05:36;;;;;;;5.32;2.15;;;15.70;96.20;;;;;;5062027;28;20043;-77
2021/08/24 07:08:04;;;;;;;4.90;2.50;;;15.00;97.70;;;;;;5058302;28;20044;-76
2021/08/24 07:10:31;;;;;;;4.82;1.33;;;14.60;99.40;;;;;;5056006;28;20395;-76
2021/08/24 07:12:58;;;;;;;4.15;1.88;;;14.60;99.90;;;;;;5057161;28;20029;-77
2021/08/24 07:15:25;;;;;;;3.38;1.42;;;14.40;99.90;;;;;;5077809;28;20057;-76
2021/08/24 07:17:56;;;;;;;3.78;1.77;;;14.30;99.90;;;;;;5057443;28;20036;-75
2021/08/24 07:20:24;;;;;;;3.95;1.83;;;14.50;99.90;;;;;;5058644;28;20702;-78
2021/08/24 07:22:55;;;;;;;3.85;1.80;;;14.70;99.90;;;;;;5058497;28;20049;-77
2021/08/24 07:25:25;;;;;;;3.38;2.15;;;14.80;99.90;;;;;;5067070;28;20048;-75
2021/08/24 07:27:54;;;;;;;3.77;1.77;;;15.10;99.90;;;;;;5058890;28;20041;-77
2021/08/24 07:30:21;;;;;;;3.08;1.50;;;15.20;99.90;;;;;;5056937;28;20053;-76
2021/08/24 07:32:47;;;;;;;3.67;1.60;;;15.50;99.30;;;;;;5067338;28;20023;-75
2021/08/24 07:35:14;;;;;;;3.72;2.15;;;15.80;98.20;;;;;;5060675;28;20104;-75
2021/08/24 07:37:41;;;;;;;3.53;1.23;;;15.80;97.20;;;;;;5057591;28;20024;-76
2021/08/24 07:40:09;;;;;;;5.15;1.80;;;15.70;96.80;;;;;;5057093;28;20033;-75
2021/08/24 07:42:35;;;;;;;5.15;1.70;;;16.30;96.30;;;;;;5057395;28;20023;-75
2021/08/24 07:45:02;;;;;;;6.28;1.58;;;16.80;94.40;;;;;;5075407;28;20052;-76
2021/08/24 07:47:29;;;;;;;4.43;1.80;;;17.20;93.80;;;;;;5064142;28;20033;-76
2021/08/24 07:49:55;;;;;;;3.78;1.38;;;17.70;92.40;;;;;;5062865;28;20036;-77
2021/08/24 07:52:21;;;;;;;4.88;1.67;;;17.80;90.20;;;;;;5066478;28;20021;-79
2021/08/24 07:54:47;;;;;;;2.83;1.50;;;17.70;90.20;;;;;;5068606;28;20032;-76
2021/08/24 07:57:14;;;;;;;3.72;1.67;;;18.10;87.40;;;;;;5073456;28;20477;-79
2021/08/24 07:59:40;;;;;;;6.68;1.77;;;18.60;87.50;;;;;;5071239;28;20040;-80
2021/08/24 08:02:12;;;;;;;2.85;1.42;;;18.50;87.00;;;;;;5072515;28;20397;-78
2021/08/24 08:04:38;;;;;;;3.20;1.38;;;18.90;83.80;;;;;;5069781;28;20508;-80
2021/08/24 08:07:04;;;;;;;4.40;1.50;;;18.30;82.50;;;;;;5071088;28;20041;-78
2021/08/24 08:09:31;;;;;;;2.75;1.60;;;18.30;82.10;;;;;;5065431;28;20039;-77
2021/08/24 08:11:57;;;;;;;3.25;1.67;;;18.80;83.30;;;;;;5052701;28;20093;-76
2021/08/24 08:14:23;;;;;;;6.05;1.73;;;18.10;82.60;;;;;;5062006;28;20044;-78
2021/08/24 08:16:49;;;;;;;3.92;1.38;;;18.40;82.50;;;;;;5072387;28;20025;-80
2021/08/24 08:19:15;;;;;;;5.30;1.70;;;18.60;80.60;;;;;;5069977;28;20029;-77
2021/08/24 08:21:42;;;;;;;2.92;1.20;;;18.40;81.00;;;;;;5054311;28;20033;-79
2021/08/24 08:24:08;;;;;;;7.25;1.40;;;18.40;79.20;;;;;;5064988;28;20043;-75
2021/08/24 08:26:37;;;;;;;3.53;1.55;;;18.40;78.90;;;;;;5066665;28;20028;-79
2021/08/24 08:29:08;;;;;;;4.65;1.23;;;19.20;78.10;;;;;;5071958;28;20033;-78
2021/08/24 08:31:36;;;;;;;5.15;2.15;;;19.00;77.70;;;;;;5061758;28;20044;-79
2021/08/24 08:34:03;;;;;;;3.55;1.38;;;19.10;76.30;;;;;;5059669;28;20056;-76
2021/08/24 08:36:29;;;;;;;2.17;1.33;;;19.80;75.50;;;;;;5068963;28;20230;-77
2021/08/24 08:38:55;;;;;;;3.00;1.73;;;19.90;75.70;;;;;;5060195;28;20041;-77
2021/08/24 08:41:38;;;;;;;3.40;1.60;;;20.50;69.50;;;;;;5056022;28;20056;-78
2021/08/24 08:44:24;;;;;;;2.72;1.45;;;20.10;70.60;;;;;;5054692;28;20057;-76
2021/08/24 08:47:00;;;;;;;2.33;1.50;;;19.00;74.40;;;;;;5055000;28;20047;-77
2021/08/24 08:49:44;;;;;;;5.47;1.83;;;19.40;73.40;;;;;;5054217;28;20045;-78
2021/08/24 08:52:29;;;;;;;2.88;1.67;;;20.10;71.50;;;;;;5069531;28;20028;-75
2021/08/24 08:55:18;;;;;;;2.67;1.50;;;21.00;70.60;;;;;;5069685;28;20052;-77
2021/08/24 08:57:47;;;;;;;2.35;1.48;;;20.10;70.10;;;;;;5068646;28;20032;-76
2021/08/24 09:00:21;;;;;;;4.60;1.30;;;19.60;71.20;;;;;;5054017;28;20483;-75
2021/08/24 09:03:10;;;;;;;3.65;1.55;;;20.00;70.40;;;;;;5051951;28;20028;-75
2021/08/24 09:05:37;;;;;;;2.70;1.63;;;20.20;69.00;;;;;;5052091;28;20405;-79
2021/08/24 09:08:04;;;;;;;4.60;1.65;;;20.40;69.00;;;;;;5066345;28;20487;-76
2021/08/24 09:10:44;;;;;;;3.05;1.58;;;20.30;67.90;;;;;;5067586;28;20488;-79
2021/08/24 09:13:24;;;;;;;4.50;1.70;;;20.70;67.50;;;;;;5069424;28;20047;-73
2021/08/24 09:15:59;;;;;;;1.50;0.90;;;21.20;66.30;;;;;;5056399;28;20041;-75
2021/08/24 09:18:37;;;;;;;2.70;1.25;;;22.20;65.90;;;;;;5070820;28;20025;-75
2021/08/24 09:21:05;;;;;;;4.65;1.42;;;22.20;65.30;;;;;;5069928;28;20036;-76
2021/08/24 09:23:32;;;;;;;2.55;1.60;;;22.30;64.00;;;;;;5067742;28;20036;-81
2021/08/24 09:26:14;;;;;;;3.30;1.65;;;22.40;64.30;;;;;;5070408;28;20040;-76
2021/08/24 09:28:41;;;;;;;3.50;1.67;;;21.70;64.10;;;;;;5069615;28;20045;-76
2021/08/24 09:31:19;;;;;;;3.80;1.83;;;21.00;65.90;;;;;;5058195;28;20037;-75
2021/08/24 09:33:46;;;;;;;4.55;2.00;;;21.30;65.30;;;;;;5050924;28;20041;-76
2021/08/24 09:36:12;;;;;;;4.05;1.85;;;20.80;66.50;;;;;;5052618;28;20033;-76
2021/08/24 09:38:49;;;;;;;2.80;1.30;;;20.70;65.60;;;;;;5070735;28;20031;-79
2021/08/24 09:41:26;;;;;;;3.08;1.70;;;20.90;67.00;;;;;;5068136;28;20041;-77
2021/08/24 09:43:58;;;;;;;2.83;1.52;;;20.90;67.10;;;;;;5066718;28;20112;-79
2021/08/24 09:46:35;;;;;;;2.28;1.50;;;21.30;66.70;;;;;;5052730;28;20063;-78
2021/08/24 09:49:06;;;;;;;4.25;1.70;;;21.30;66.90;;;;;;5052018;28;20041;-76
2021/08/24 09:51:53;;;;;;;3.05;1.75;;;21.10;66.70;;;;;;5052648;28;20033;-77
2021/08/24 09:54:34;;;;;;;4.38;1.75;;;21.20;66.70;;;;;;5061634;28;20029;-75
2021/08/24 09:57:34;;;;;;;3.88;2.20;;;20.70;66.70;;;;;;5068565;28;20351;-76
2021/08/24 10:00:02;;;;;;;2.70;1.58;;;20.10;69.40;;;;;;5051757;28;20033;-74
2021/08/24 10:02:42;;;;;;;3.28;1.95;;;20.30;69.60;;;;;;5058357;28;20037;-76
2021/08/24 10:05:31;;;;;;;3.88;1.67;;;20.20;69.20;;;;;;5068235;28;20040;-77
2021/08/24 10:08:01;;;;;;;4.38;1.80;;;20.20;70.20;;;;;;5053401;28;20041;-77
2021/08/24 10:10:33;;;;;;;3.20;1.80;;;19.50;71.00;;;;;;5063223;28;20028;-77
2021/08/24 10:13:20;;;;;;;4.00;1.90;;;19.50;71.90;;;;;;5055408;28;20040;-78
2021/08/24 10:15:48;;;;;;;4.82;2.53;;;19.60;73.20;;;;;;5054884;28;20033;-79
2021/08/24 10:18:24;;;;;;;3.47;1.98;;;19.50;71.30;;;;;;5054573;28;20144;-78
2021/08/24 10:21:54;;;;;;;5.55;2.50;;;19.50;72.80;;;;;;5055471;28;20045;-79
2021/08/24 10:24:36;;;;;;;4.50;2.10;;;19.70;71.80;;;;;;4988442;28;20050;-79
2021/08/24 10:27:08;;;;;;;4.60;2.00;;;20.20;70.90;;;;;;4987874;28;20045;-77
2021/08/24 10:29:37;;;;;;;3.80;1.75;;;20.40;71.80;;;;;;5004040;28;20049;-75
2021/08/24 10:32:08;;;;;;;3.35;1.80;;;20.40;69.80;;;;;;4993190;28;20037;-76
2021/08/24 10:34:52;;;;;;;3.17;1.85;;;20.80;71.30;;;;;;4999900;28;20054;-78
2021/08/24 10:37:24;;;;;;;3.35;2.47;;;20.20;71.40;;;;;;4995626;28;20384;-79
2021/08/24 10:40:14;;;;;;;5.03;2.10;;;19.90;72.50;;;;;;5013950;28;20034;-80
2021/08/24 10:43:17;;;;;;;4.18;1.88;;;19.70;72.50;;;;;;5001995;28;20042;-77
2021/08/24 10:46:06;;;;;;;3.72;1.63;;;19.60;73.10;;;;;;4993685;28;20511;-79
2021/08/24 10:48:34;;;;;;;4.03;1.70;;;19.80;73.90;;;;;;5008813;28;20049;-78
2021/08/24 10:51:08;;;;;;;3.60;2.17;;;20.30;72.40;;;;;;4992856;28;20034;-79
2021/08/24 10:53:43;;;;;;;3.22;2.05;;;20.40;72.70;;;;;;4982066;28;20085;-79
2021/08/24 10:56:30;;;;;;;3.83;2.05;;;20.00;72.80;;;;;;5049031;28;20116;-75
2021/08/24 10:59:24;;;;;;;4.30;2.80;;;20.20;73.40;;;;;;5057049;28;20052;-76
2021/08/24 11:01:58;;;;;;;4.03;2.42;;;20.20;72.10;;;;;;5068010;28;20482;-77
2021/08/24 11:04:45;;;;;;;4.80;2.45;;;20.50;72.90;;;;;;5068024;28;20036;-75
2021/08/24 11:07:27;;;;;;;3.95;2.38;;;20.00;72.60;;;;;;5059803;28;20059;-77
2021/08/24 11:09:58;;;;;;;4.40;2.13;;;19.80;72.50;;;;;;5073099;28;20040;-78
2021/08/24 11:12:48;;;;;;;6.10;2.47;;;19.60;73.20;;;;;;5055334;28;20033;-77
2021/08/24 11:15:38;;;;;;;6.38;2.70;;;19.90;74.20;;;;;;5067975;28;20470;-85
2021/08/24 11:18:16;;;;;;;4.72;2.20;;;20.20;73.90;;;;;;5054147;28;20052;-77
2021/08/24 11:20:49;;;;;;;5.72;2.42;;;20.60;72.00;;;;;;5053720;28;20040;-80
2021/08/24 11:23:18;;;;;;;3.45;2.40;;;20.30;72.20;;;;;;5060274;28;20033;-76
2021/08/24 11:25:48;;;;;;;3.55;2.33;;;20.10;74.20;;;;;;5052319;28;20505;-78
2021/08/24 11:28:40;;;;;;;4.80;2.72;;;20.40;72.80;;;;;;5055637;28;20067;-77
2021/08/24 11:31:39;;;;;;;5.32;2.88;;;20.20;73.30;;;;;;5075513;28;20028;-79
2021/08/24 11:34:18;;;;;;;5.80;3.40;;;20.10;73.70;;;;;;5038327;28;20063;-79
2021/08/24 11:36:55;;;;;;;5.15;3.05;;;20.20;73.20;;;;;;5060733;28;20395;-78
2021/08/24 11:39:31;;;;;;;12.48;2.67;;;20.10;73.90;;;;;;5052672;28;20033;-78
2021/08/24 11:42:02;;;;;;;3.60;2.40;;;20.40;73.10;;;;;;5061294;28;20047;-79
2021/08/24 11:44:40;;;;;;;3.67;2.80;;;20.60;72.80;;;;;;5060878;28;20044;-79
2021/08/24 11:47:11;;;;;;;5.28;2.67;;;21.00;71.20;;;;;;5072927;28;20053;-77
2021/08/24 11:49:47;;;;;;;4.47;2.67;;;21.30;70.30;;;;;;5061834;28;20458;-77
2021/08/24 11:52:53;;;;;;;3.92;2.90;;;21.10;70.20;;;;;;5053275;28;20036;-77
2021/08/24 11:55:39;;;;;;;3.78;2.47;;;21.30;71.70;;;;;;5053111;28;20127;-79
2021/08/24 11:58:25;;;;;;;4.93;2.67;;;21.20;70.00;;;;;;5053693;28;20047;-81
2021/08/24 12:00:57;;;;;;;4.18;2.83;;;20.60;71.90;;;;;;5053511;28;20497;-80
2021/08/24 12:03:24;;;;;;;4.03;3.00;;;20.60;71.20;;;;;;5052313;28;20033;-78
2021/08/24 12:06:01;;;;;;;5.65;3.08;;;20.50;71.30;;;;;;5053009;28;20469;-78
2021/08/24 12:08:31;;;;;;;5.88;2.45;;;20.50;72.30;;;;;;5053029;28;20051;-81
2021/08/24 12:11:05;;;;;;;4.20;3.17;;;20.40;72.70;;;;;;5053327;28;20033;-81
2021/08/24 12:13:39;;;;;;;4.47;3.05;;;20.20;72.20;;;;;;5052810;28;20462;-81
2021/08/24 12:16:31;;;;;;;4.78;3.35;;;20.20;70.90;;;;;;5061740;28;20398;-78
2021/08/24 12:18:57;;;;;;;4.82;3.58;;;20.30;73.30;;;;;;5063965;28;20386;-80
2021/08/24 12:21:33;;;;;;;5.03;3.00;;;20.40;72.60;;;;;;5067016;28;20055;-79
2021/08/24 12:24:24;;;;;;;5.05;3.15;;;20.30;72.70;;;;;;5053628;28;20025;-78
2021/08/24 12:27:12;;;;;;;5.72;3.22;;;20.20;74.00;;;;;;5067173;28;20044;-79
2021/08/24 12:29:39;;;;;;;4.00;3.00;;;20.40;73.60;;;;;;5028364;28;20051;-78
2021/08/24 12:32:20;;;;;;;3.85;2.65;;;20.10;73.90;;;;;;5051550;28;20029;-77
2021/08/24 12:34:46;;;;;;;;;;;20.40;74.20;;;;;;5052813;28;20057;-77
2021/08/24 12:37:18;;;;;;;4.60;2.95;;;20.40;73.60;;;;;;5052693;28;19909;-80
2021/08/24 12:39:45;;;;;;;4.80;2.63;;;20.30;73.30;;;;;;5052135;28;20036;-78
2021/08/24 12:43:01;;;;;;;4.10;3.28;;;20.10;73.90;;;;;;5065646;28;20032;-78
2021/08/24 12:45:30;;;;;;;5.55;3.28;;;20.00;74.90;;;;;;5024757;28;20053;-78
2021/08/24 12:48:13;;;;;;;3.92;2.90;;;20.10;73.90;;;;;;5062732;28;20136;-79
2021/08/24 12:50:39;;;;;;;6.00;3.08;;;20.20;74.50;;;;;;5052567;28;20041;-77
2021/08/24 12:53:35;;;;;;;4.78;3.30;;;20.30;73.80;;;;;;5052465;28;20041;-77
2021/08/24 12:56:03;;;;;;;4.40;3.00;;;20.10;74.30;;;;;;5051283;28;20044;-78
2021/08/24 12:58:45;;;;;;;4.85;3.60;;;20.00;74.90;;;;;;5065701;28;20043;-77
2021/08/24 13:01:20;;;;;;;4.05;3.10;;;20.00;75.70;;;;;;5052663;28;20467;-79
2021/08/24 13:04:23;;;;;;;4.93;3.13;;;20.00;75.00;;;;;;5052314;28;20032;-78
2021/08/24 13:07:13;;;;;;;4.63;3.47;;;19.90;75.80;;;;;;5068141;28;20036;-77